Gussing, Austria
Current Conditions -  °F | °C
As of 3:50 AM on Sunday 26 Oct 2014 (Local Time) from LOWG Reporting Station
Broken Clouds Broken Clouds  
Wind Chill: 42°   Ceiling: 600
Heat Index: 45°   Visibility: 5mi
Dew Point: 41°   Wind: 5mph
Humidity: 87%   Direction: 360°N
Pressure: 30.3"   Gusts: NA
Location:  47.06°N, 16.32°E
Report Text: LOWG 260150Z AUTO 36004KT 8000 BKN006 07/05 Q1026
Loading
Personal Weather Stations






























Interactive Weather Map
Tropical Storm Tracking
New forecast layout! Learn more

10-Day Weather Forecast

Advertisements
Track Severe Weather on mobile